createdAt,value
2022-12-03T02:17:33.793Z,13.20
2022-12-03T02:20:49.995Z,15.73
2022-12-03T02:23:36.196Z,14.88
2022-12-03T02:35:50.626Z,13.57
2022-12-03T02:38:37.823Z,16.80
2022-12-03T02:50:03.999Z,13.80
2022-12-03T02:52:39.804Z,15.57
2022-12-03T02:58:16.978Z,17.67
2022-12-03T03:01:23.354Z,13.00
2022-12-03T03:03:53.738Z,14.93
2022-12-03T03:06:34.307Z,13.65
2022-12-03T03:09:01.757Z,14.13
2022-12-03T03:12:43.761Z,12.32
2022-12-03T03:28:47.295Z,9.98
2022-12-03T03:35:04.111Z,9.98
2022-12-03T05:16:01.749Z,23.23
2022-12-03T05:18:35.472Z,22.60
2022-12-03T05:21:02.308Z,19.83
2022-12-03T05:23:32.345Z,21.73
2022-12-03T05:26:04.994Z,60.45
2022-12-03T05:28:31.952Z,29.48
2022-12-03T05:31:14.452Z,24.27
2022-12-03T05:39:21.107Z,20.35
2022-12-03T05:50:01.506Z,15.80
2022-12-03T05:53:08.547Z,17.08
2022-12-03T06:49:42.832Z,11.95
2022-12-03T06:52:09.748Z,23.25
2022-12-03T17:55:22.307Z,69.90
2022-12-03T17:57:54.987Z,63.20
2022-12-03T18:00:25.135Z,60.00
2022-12-03T18:02:51.813Z,71.82
2022-12-03T18:05:18.707Z,58.28
2022-12-03T18:07:47.300Z,76.20
2022-12-03T18:10:14.139Z,68.07
2022-12-03T18:12:41.048Z,83.65
2022-12-03T18:15:10.894Z,79.85
2022-12-03T18:17:39.101Z,96.78
2022-12-03T18:20:07.037Z,97.70
2022-12-03T18:22:34.430Z,97.05
2022-12-03T18:25:01.438Z,87.72
2022-12-03T18:27:28.431Z,87.28
2022-12-03T18:29:56.300Z,83.75
2022-12-03T18:32:29.305Z,88.15
2022-12-03T18:34:57.451Z,90.95
2022-12-03T18:37:31.834Z,101.05
2022-12-03T18:39:59.465Z,94.45
2022-12-03T18:42:27.457Z,97.47
2022-12-03T18:44:56.448Z,92.38
2022-12-03T18:47:29.980Z,93.68
2022-12-03T18:49:57.942Z,82.53
2022-12-03T18:52:25.365Z,85.80
2022-12-03T18:54:53.160Z,86.30
2022-12-03T18:57:20.128Z,99.00
2022-12-03T18:59:54.928Z,95.22
2022-12-03T19:05:12.383Z,84.15
2022-12-03T19:07:57.700Z,80.80
2022-12-03T19:10:28.358Z,86.97
2022-12-03T19:12:57.503Z,86.28
2022-12-03T19:15:24.614Z,94.45
2022-12-03T19:17:51.721Z,86.47
2022-12-03T19:20:26.928Z,94.00
2022-12-03T19:23:01.406Z,88.25
2022-12-03T19:25:28.461Z,81.10
2022-12-03T19:27:59.870Z,68.43
2022-12-03T19:30:31.747Z,84.28
2022-12-03T19:33:18.046Z,77.63
2022-12-03T19:57:23.470Z,92.28
2022-12-03T19:59:53.927Z,87.28
2022-12-03T20:02:33.614Z,92.30
2022-12-03T20:05:02.180Z,97.15
2022-12-03T20:07:29.735Z,97.22
2022-12-03T20:09:57.209Z,94.53
2022-12-03T20:12:24.401Z,91.28
2022-12-03T20:14:53.877Z,91.93
2022-12-03T20:17:52.122Z,87.35
2022-12-03T20:20:34.785Z,85.55
2022-12-03T20:26:44.979Z,79.60
2022-12-03T20:34:27.265Z,77.35
2022-12-03T20:40:06.330Z,69.93
2022-12-03T20:43:09.284Z,73.15
2022-12-03T20:49:54.526Z,67.50
2022-12-03T20:52:27.249Z,69.85
2022-12-03T20:54:55.282Z,72.03
2022-12-03T20:57:34.565Z,84.30
2022-12-03T21:42:18.940Z,57.20
2022-12-03T21:44:43.994Z,68.50
2022-12-03T21:47:36.678Z,58.45
2022-12-03T22:01:55.606Z,50.08
2022-12-03T22:17:59.862Z,57.83
2022-12-03T22:23:53.595Z,57.83
2022-12-03T22:26:37.530Z,51.90
2022-12-03T22:29:21.275Z,47.50
2022-12-03T22:32:11.697Z,50.30
2022-12-03T22:35:05.185Z,50.30
2022-12-03T22:37:55.830Z,55.58
2022-12-03T22:40:42.478Z,48.28
2022-12-03T22:43:22.897Z,46.67
2022-12-03T22:45:55.451Z,56.30
2022-12-03T22:48:23.256Z,46.47
2022-12-03T22:50:52.102Z,50.47
2022-12-03T22:54:28.916Z,53.05
2022-12-03T23:19:36.810Z,63.53
